Time;durP1;ratioP1;P1;durP2;ratioP2;P2;SDS_P1;SDS_P2;PMS_P1;PMS_P2;Temp;Humidity;BMP_temperature;BMP_pressure;BME280_temperature;BME280_humidity;BME280_pressure;Samples;Min_cycle;Max_cycle;Signal;HPM_P1;HPM_P2
2023/05/09 00:01:32;;;;;;;0.10;0.10;;;15.70;99.90;;;;;;5073556;28;20273;-82
2023/05/09 00:03:58;;;;;;;0.10;0.10;;;15.60;99.90;;;;;;5073372;28;20284;-83
2023/05/09 00:06:25;;;;;;;0.10;0.10;;;15.50;99.90;;;;;;5072969;28;20180;-83
2023/05/09 00:08:51;;;;;;;0.10;0.10;;;15.50;99.90;;;;;;5071354;28;20613;-83
2023/05/09 00:11:16;;;;;;;0.10;0.10;;;15.50;99.90;;;;;;5074727;28;20258;-82
2023/05/09 00:13:43;;;;;;;0.10;0.10;;;15.50;99.90;;;;;;5071728;28;20225;-82
2023/05/09 00:16:09;;;;;;;0.10;0.10;;;15.40;99.90;;;;;;5071717;28;20238;-83
2023/05/09 00:18:35;;;;;;;0.10;0.10;;;15.40;99.90;;;;;;5072649;28;20192;-82
2023/05/09 00:21:03;;;;;;;0.10;0.10;;;15.40;99.90;;;;;;5073800;28;20211;-83
2023/05/09 00:23:29;;;;;;;0.10;0.10;;;15.40;99.90;;;;;;5071662;28;20188;-83
2023/05/09 00:25:54;;;;;;;0.10;0.10;;;15.50;99.90;;;;;;5070952;28;20650;-82
2023/05/09 00:28:20;;;;;;;0.10;0.10;;;15.50;99.90;;;;;;5070020;28;20180;-83
2023/05/09 00:30:45;;;;;;;0.10;0.10;;;15.40;99.90;;;;;;5070337;28;20240;-82
2023/05/09 00:33:11;;;;;;;0.10;0.10;;;15.40;99.90;;;;;;5070743;28;20671;-82
2023/05/09 00:35:37;;;;;;;0.10;0.10;;;15.40;99.90;;;;;;5073113;28;21099;-82
2023/05/09 00:38:02;;;;;;;0.10;0.10;;;15.60;99.90;;;;;;5073400;28;20216;-82
2023/05/09 00:40:28;;;;;;;0.10;0.10;;;15.60;99.90;;;;;;5071052;28;20212;-82
2023/05/09 00:42:57;;;;;;;0.10;0.10;;;15.60;99.90;;;;;;5071799;28;20185;-82
2023/05/09 00:45:22;;;;;;;0.10;0.10;;;15.60;99.90;;;;;;5070947;28;20188;-82
2023/05/09 00:47:48;;;;;;;0.10;0.10;;;15.70;99.90;;;;;;5072546;28;20184;-83
2023/05/09 00:50:14;;;;;;;0.10;0.10;;;15.60;99.90;;;;;;5071769;28;20205;-83
2023/05/09 00:52:40;;;;;;;0.10;0.10;;;15.80;99.90;;;;;;5071466;28;20228;-83
2023/05/09 00:55:07;;;;;;;0.10;0.10;;;15.90;99.90;;;;;;5071657;28;20181;-83
2023/05/09 00:57:33;;;;;;;0.10;0.10;;;16.00;99.90;;;;;;5070971;28;20613;-82
2023/05/09 01:00:00;;;;;;;0.10;0.10;;;16.20;99.90;;;;;;5069401;28;20284;-82
2023/05/09 01:02:26;;;;;;;0.10;0.10;;;16.10;99.90;;;;;;5072572;28;20208;-83
2023/05/09 01:04:52;;;;;;;0.10;0.10;;;16.20;99.90;;;;;;5069470;28;20176;-82
2023/05/09 01:07:29;;;;;;;0.10;0.10;;;16.20;99.90;;;;;;5071466;28;20190;-83
2023/05/09 01:09:58;;;;;;;0.10;0.10;;;16.10;99.90;;;;;;5070004;28;20238;-83
2023/05/09 01:12:57;;;;;;;0.10;0.10;;;16.00;99.90;;;;;;5072435;28;20216;-82
2023/05/09 01:15:40;;;;;;;0.10;0.10;;;15.80;99.90;;;;;;5046129;28;20245;-83
2023/05/09 01:18:15;;;;;;;0.10;0.10;;;15.70;99.90;;;;;;5071196;28;20176;-83
2023/05/09 01:20:54;;;;;;;0.10;0.10;;;15.70;99.90;;;;;;5073260;28;20219;-82
2023/05/09 01:23:38;;;;;;;0.10;0.10;;;15.40;99.90;;;;;;5071753;28;20188;-82
2023/05/09 01:26:11;;;;;;;0.10;0.10;;;15.30;99.90;;;;;;5071109;28;20207;-82
2023/05/09 01:29:20;;;;;;;0.10;0.10;;;15.40;99.90;;;;;;5069871;28;20189;-82
2023/05/09 01:31:47;;;;;;;0.10;0.10;;;15.50;99.90;;;;;;5072663;28;20220;-83
2023/05/09 01:34:16;;;;;;;0.10;0.10;;;15.60;99.90;;;;;;5072712;28;20188;-83
2023/05/09 01:36:42;;;;;;;0.10;0.10;;;15.70;99.90;;;;;;5073301;28;20184;-83
2023/05/09 01:39:12;;;;;;;0.10;0.10;;;15.60;99.90;;;;;;5073031;28;20192;-82
2023/05/09 01:41:38;;;;;;;0.10;0.10;;;15.40;99.90;;;;;;5070837;28;20208;-82
2023/05/09 01:44:06;;;;;;;0.10;0.10;;;15.20;99.90;;;;;;5072100;28;20278;-83
2023/05/09 01:46:34;;;;;;;0.10;0.10;;;15.10;99.90;;;;;;5073839;28;20207;-83
2023/05/09 01:49:01;;;;;;;0.10;0.10;;;15.20;99.90;;;;;;5071546;28;20250;-82
2023/05/09 01:51:28;;;;;;;0.10;0.10;;;15.20;99.90;;;;;;5071474;28;20212;-82
2023/05/09 01:53:56;;;;;;;0.10;0.10;;;15.30;99.90;;;;;;5068695;28;20258;-82
2023/05/09 01:56:23;;;;;;;0.10;0.10;;;15.40;99.90;;;;;;5069205;28;20262;-82
2023/05/09 01:58:50;;;;;;;0.10;0.10;;;15.50;99.90;;;;;;5072889;28;20684;-82
2023/05/09 02:01:17;;;;;;;0.10;0.10;;;15.60;99.90;;;;;;5070621;28;20205;-82
2023/05/09 02:03:45;;;;;;;0.10;0.10;;;15.70;99.90;;;;;;5071166;28;20200;-83
2023/05/09 02:06:12;;;;;;;0.10;0.10;;;15.70;99.90;;;;;;5072410;28;20196;-82
2023/05/09 02:08:38;;;;;;;0.10;0.10;;;15.80;99.90;;;;;;5072544;28;20211;-83
2023/05/09 02:11:04;;;;;;;0.10;0.10;;;15.90;99.90;;;;;;5069345;28;20246;-82
2023/05/09 02:13:29;;;;;;;0.10;0.10;;;15.90;99.90;;;;;;5073581;28;20190;-83
2023/05/09 02:15:55;;;;;;;0.10;0.10;;;15.90;99.90;;;;;;5070262;28;20202;-83
2023/05/09 02:18:21;;;;;;;0.10;0.10;;;16.00;99.90;;;;;;5071708;28;20197;-83
2023/05/09 02:20:47;;;;;;;0.10;0.10;;;15.90;99.90;;;;;;5071644;28;20212;-82
2023/05/09 02:23:13;;;;;;;0.10;0.10;;;15.90;99.90;;;;;;5068764;28;20203;-83
2023/05/09 02:25:39;;;;;;;0.10;0.10;;;15.90;99.90;;;;;;5071209;28;20720;-82
2023/05/09 02:28:07;;;;;;;0.10;0.10;;;15.80;99.90;;;;;;5072120;28;20259;-82
2023/05/09 02:30:38;;;;;;;0.10;0.10;;;15.80;99.90;;;;;;5070596;28;20340;-82
2023/05/09 02:33:07;;;;;;;0.10;0.10;;;15.90;99.90;;;;;;5074194;28;20676;-82
2023/05/09 02:35:34;;;;;;;0.10;0.10;;;15.90;99.90;;;;;;5075238;28;20181;-82
2023/05/09 02:37:59;;;;;;;0.10;0.10;;;16.00;99.90;;;;;;5074158;28;20192;-83
2023/05/09 02:40:29;;;;;;;0.10;0.10;;;15.90;99.90;;;;;;5073505;28;20231;-83
2023/05/09 02:42:55;;;;;;;0.10;0.10;;;15.90;99.90;;;;;;5073750;28;20217;-82
2023/05/09 02:45:21;;;;;;;0.10;0.10;;;15.90;99.90;;;;;;5074695;28;20228;-82
2023/05/09 02:47:46;;;;;;;0.10;0.10;;;15.90;99.90;;;;;;5075089;28;20211;-83
2023/05/09 02:50:12;;;;;;;0.10;0.10;;;15.80;99.90;;;;;;5074666;28;20683;-81
2023/05/09 02:52:38;;;;;;;0.10;0.10;;;15.70;99.90;;;;;;5073410;28;20193;-83
2023/05/09 02:55:04;;;;;;;0.10;0.10;;;15.40;99.90;;;;;;5073868;28;20184;-82
2023/05/09 02:57:30;;;;;;;0.10;0.10;;;15.30;99.90;;;;;;5072381;28;20191;-82
2023/05/09 02:59:55;;;;;;;0.10;0.10;;;15.30;99.90;;;;;;5072602;28;21406;-83
2023/05/09 03:02:22;;;;;;;0.10;0.10;;;15.30;99.90;;;;;;5073173;28;20276;-83
2023/05/09 03:04:48;;;;;;;0.10;0.10;;;15.30;99.90;;;;;;5073590;28;20185;-82
2023/05/09 03:07:13;;;;;;;0.10;0.10;;;15.30;99.90;;;;;;5070846;28;20677;-82
2023/05/09 03:09:39;;;;;;;0.10;0.10;;;15.30;99.90;;;;;;5073904;28;20203;-82
2023/05/09 03:12:05;;;;;;;0.10;0.10;;;15.20;99.90;;;;;;5073224;28;20224;-83
2023/05/09 03:14:30;;;;;;;0.10;0.10;;;15.20;99.90;;;;;;5073335;28;20193;-82
2023/05/09 03:16:56;;;;;;;0.10;0.10;;;15.20;99.90;;;;;;5071157;28;20535;-83
2023/05/09 03:19:21;;;;;;;0.10;0.10;;;15.20;99.90;;;;;;5074420;28;20206;-83
2023/05/09 03:21:47;;;;;;;0.10;0.10;;;15.20;99.90;;;;;;5073178;28;20209;-83
2023/05/09 03:24:12;;;;;;;0.10;0.10;;;15.20;99.90;;;;;;5072224;28;20725;-82
2023/05/09 03:26:38;;;;;;;0.10;0.10;;;15.20;99.90;;;;;;5070885;28;20195;-82
2023/05/09 03:29:04;;;;;;;0.10;0.10;;;15.20;99.90;;;;;;5073087;28;20661;-83
2023/05/09 03:31:30;;;;;;;0.10;0.10;;;15.30;99.90;;;;;;5072252;28;20252;-83
2023/05/09 03:33:55;;;;;;;0.10;0.10;;;15.30;99.90;;;;;;5071549;28;20263;-83
2023/05/09 03:36:22;;;;;;;0.10;0.10;;;15.30;99.90;;;;;;5074444;28;20558;-82
2023/05/09 03:38:48;;;;;;;0.10;0.10;;;15.30;99.90;;;;;;5072570;28;20176;-82
2023/05/09 03:41:16;;;;;;;0.10;0.10;;;15.30;99.90;;;;;;5072471;28;20327;-83
2023/05/09 03:43:42;;;;;;;0.10;0.10;;;15.40;99.90;;;;;;5073979;28;20709;-83
2023/05/09 03:46:08;;;;;;;0.10;0.10;;;15.40;99.90;;;;;;5070116;28;20180;-83
2023/05/09 03:48:34;;;;;;;0.10;0.10;;;15.30;99.90;;;;;;5074856;28;20195;-82
2023/05/09 03:50:59;;;;;;;0.10;0.10;;;15.20;99.90;;;;;;5073945;28;20952;-82
2023/05/09 03:53:25;;;;;;;0.10;0.10;;;15.20;99.90;;;;;;5071893;28;20191;-83
2023/05/09 03:55:50;;;;;;;0.10;0.10;;;14.90;99.90;;;;;;5071844;28;20177;-83
2023/05/09 03:58:18;;;;;;;0.10;0.10;;;15.00;99.90;;;;;;5071553;28;20250;-82
2023/05/09 04:00:43;;;;;;;0.10;0.10;;;15.10;99.90;;;;;;5074686;28;20993;-83
2023/05/09 04:03:09;;;;;;;0.10;0.10;;;15.20;99.90;;;;;;5071521;28;20254;-83
2023/05/09 04:05:35;;;;;;;0.10;0.10;;;15.20;99.90;;;;;;5070012;28;20214;-83
2023/05/09 04:08:01;;;;;;;0.10;0.10;;;15.30;99.90;;;;;;5072109;28;20196;-81
2023/05/09 04:10:27;;;;;;;0.10;0.10;;;15.40;99.90;;;;;;5071702;28;20214;-82
2023/05/09 04:12:52;;;;;;;0.10;0.10;;;15.50;99.90;;;;;;5072434;28;20181;-83
2023/05/09 04:15:17;;;;;;;0.10;0.10;;;15.50;99.90;;;;;;5075383;28;20200;-83
2023/05/09 04:17:43;;;;;;;0.10;0.10;;;15.60;99.90;;;;;;5072577;28;20602;-82
2023/05/09 04:20:09;;;;;;;0.10;0.10;;;15.70;99.90;;;;;;5070921;28;20196;-83
2023/05/09 04:22:35;;;;;;;0.10;0.10;;;15.80;99.90;;;;;;5087993;28;20200;-83
2023/05/09 04:25:02;;;;;;;0.10;0.10;;;15.60;99.90;;;;;;5071506;28;20201;-83
2023/05/09 04:27:27;;;;;;;0.10;0.10;;;15.40;99.90;;;;;;5072731;28;20192;-82
2023/05/09 04:29:53;;;;;;;0.10;0.10;;;15.40;99.90;;;;;;5073856;28;20246;-82
2023/05/09 04:32:19;;;;;;;0.10;0.10;;;15.40;99.90;;;;;;5073336;28;20227;-83
2023/05/09 04:34:45;;;;;;;0.10;0.10;;;15.30;99.90;;;;;;5075498;28;20177;-82
2023/05/09 04:37:12;;;;;;;0.10;0.10;;;15.30;99.90;;;;;;5074942;28;20681;-82
2023/05/09 04:39:37;;;;;;;0.10;0.10;;;15.20;99.90;;;;;;5073806;28;20185;-82
2023/05/09 04:42:04;;;;;;;0.10;0.10;;;15.20;99.90;;;;;;5070376;28;20262;-83
2023/05/09 04:44:30;;;;;;;0.10;0.10;;;15.30;99.90;;;;;;5072477;28;20193;-83
2023/05/09 04:46:56;;;;;;;0.10;0.10;;;15.40;99.90;;;;;;5072685;28;20272;-82
2023/05/09 04:49:22;;;;;;;0.10;0.10;;;15.40;99.90;;;;;;5069448;28;20308;-83
2023/05/09 04:51:48;;;;;;;0.10;0.10;;;15.40;99.90;;;;;;5071665;28;20811;-83
2023/05/09 04:54:13;;;;;;;0.10;0.10;;;15.30;99.90;;;;;;5070750;28;20197;-83
2023/05/09 04:56:39;;;;;;;0.10;0.10;;;15.30;99.90;;;;;;5070530;28;20215;-83
2023/05/09 04:59:04;;;;;;;0.10;0.10;;;15.30;99.90;;;;;;5071110;28;20215;-82
2023/05/09 05:01:30;;;;;;;0.10;0.10;;;15.30;99.90;;;;;;5072737;28;20215;-83
2023/05/09 05:03:55;;;;;;;0.10;0.10;;;15.50;99.90;;;;;;5072018;28;20674;-83
2023/05/09 05:06:21;;;;;;;0.10;0.10;;;15.50;99.90;;;;;;5073083;28;20195;-83
2023/05/09 05:08:46;;;;;;;0.10;0.10;;;15.50;99.90;;;;;;5068906;28;20184;-83
2023/05/09 05:11:12;;;;;;;0.10;0.10;;;15.60;99.90;;;;;;5069159;28;20586;-82
2023/05/09 05:13:38;;;;;;;0.10;0.10;;;15.50;99.90;;;;;;5068753;28;20266;-83
2023/05/09 05:16:04;;;;;;;0.10;0.10;;;15.70;99.90;;;;;;5068884;28;20193;-84
2023/05/09 05:18:29;;;;;;;0.10;0.10;;;15.80;99.90;;;;;;5072026;28;20238;-84
2023/05/09 05:20:55;;;;;;;0.10;0.10;;;15.90;99.90;;;;;;5070633;28;20205;-85
2023/05/09 05:23:20;;;;;;;0.10;0.10;;;16.20;99.90;;;;;;5072321;28;20204;-85
2023/05/09 05:25:46;;;;;;;0.10;0.10;;;16.50;99.90;;;;;;5072972;28;20208;-84
2023/05/09 05:28:11;;;;;;;0.10;0.10;;;17.00;99.90;;;;;;5074537;28;20202;-86
2023/05/09 05:30:38;;;;;;;0.10;0.10;;;17.40;99.90;;;;;;5073452;28;20248;-82
2023/05/09 05:33:04;;;;;;;0.10;0.10;;;17.70;99.90;;;;;;5070358;28;20673;-82
2023/05/09 05:35:29;;;;;;;0.10;0.10;;;17.50;99.90;;;;;;5075064;28;20248;-82
2023/05/09 05:37:55;;;;;;;0.10;0.10;;;17.10;99.90;;;;;;5070498;28;20180;-83
2023/05/09 05:40:21;;;;;;;0.10;0.10;;;17.40;99.90;;;;;;5070027;28;20197;-83
2023/05/09 05:42:46;;;;;;;0.10;0.10;;;17.70;99.90;;;;;;5068804;28;20663;-83
2023/05/09 05:45:12;;;;;;;0.10;0.10;;;17.90;99.90;;;;;;5067636;28;20234;-83
2023/05/09 05:47:37;;;;;;;0.10;0.10;;;18.40;99.90;;;;;;5071990;28;20181;-83
2023/05/09 05:50:05;;;;;;;0.10;0.10;;;18.70;99.90;;;;;;5068863;28;20693;-84
2023/05/09 05:52:31;;;;;;;0.10;0.10;;;18.80;99.90;;;;;;5086022;28;20216;-83
2023/05/09 05:54:57;;;;;;;0.10;0.10;;;18.80;99.90;;;;;;5071009;28;20205;-83
2023/05/09 05:57:22;;;;;;;0.10;0.10;;;18.20;99.90;;;;;;5069586;28;20548;-83
2023/05/09 05:59:49;;;;;;;0.10;0.10;;;17.80;99.90;;;;;;5070635;28;20188;-83
2023/05/09 06:02:16;;;;;;;0.10;0.10;;;18.00;99.90;;;;;;5068762;28;20198;-82
2023/05/09 06:04:42;;;;;;;0.10;0.10;;;18.00;99.90;;;;;;5071318;28;20291;-83
2023/05/09 06:07:08;;;;;;;0.10;0.10;;;18.40;99.90;;;;;;5075798;28;20314;-82
2023/05/09 06:09:33;;;;;;;0.10;0.10;;;18.60;99.90;;;;;;5075404;28;20240;-83
2023/05/09 06:11:59;;;;;;;0.10;0.10;;;18.50;99.90;;;;;;5075724;28;20212;-83
2023/05/09 06:14:24;;;;;;;0.10;0.10;;;17.70;99.90;;;;;;5073565;28;20189;-82
2023/05/09 06:16:50;;;;;;;0.10;0.10;;;18.20;99.90;;;;;;5074459;28;20195;-87
2023/05/09 06:19:16;;;;;;;0.10;0.10;;;18.20;99.90;;;;;;5071165;28;20185;-83
2023/05/09 06:21:42;;;;;;;0.10;0.10;;;18.10;99.90;;;;;;5073419;28;20220;-83
2023/05/09 06:24:08;;;;;;;0.10;0.10;;;17.90;99.90;;;;;;5073960;28;20191;-83
2023/05/09 06:26:33;;;;;;;0.10;0.10;;;18.30;99.90;;;;;;5069602;28;20211;-82
2023/05/09 06:28:59;;;;;;;0.10;0.10;;;18.50;99.90;;;;;;5069603;28;20192;-83
2023/05/09 06:31:25;;;;;;;0.10;0.10;;;18.70;99.90;;;;;;5069139;28;20219;-83
2023/05/09 06:33:50;;;;;;;0.10;0.10;;;18.70;99.90;;;;;;5072685;28;20185;-83
2023/05/09 06:36:16;;;;;;;0.10;0.10;;;18.80;99.90;;;;;;5073840;28;20563;-83
2023/05/09 06:38:41;;;;;;;0.10;0.10;;;18.60;99.90;;;;;;5070643;28;20188;-83
2023/05/09 06:41:07;;;;;;;0.10;0.10;;;18.60;99.90;;;;;;5071567;28;20240;-83
2023/05/09 06:43:32;;;;;;;0.10;0.10;;;18.70;99.90;;;;;;5073311;28;20224;-83
2023/05/09 06:45:58;;;;;;;0.10;0.10;;;18.60;99.90;;;;;;5073316;28;20197;-83
2023/05/09 06:48:23;;;;;;;0.10;0.10;;;18.70;99.90;;;;;;5075235;28;20191;-81
2023/05/09 06:50:49;;;;;;;0.10;0.10;;;18.80;99.90;;;;;;5072930;28;20217;-83
2023/05/09 06:53:15;;;;;;;0.10;0.10;;;18.80;99.90;;;;;;5075420;28;20251;-83
2023/05/09 06:55:41;;;;;;;0.10;0.10;;;18.50;99.90;;;;;;5077198;28;20551;-84
2023/05/09 06:58:06;;;;;;;0.10;0.10;;;18.60;99.90;;;;;;5076340;28;20672;-84
2023/05/09 07:00:32;;;;;;;0.10;0.10;;;18.80;99.90;;;;;;5075791;28;20287;-83
2023/05/09 07:02:58;;;;;;;0.10;0.10;;;18.40;99.90;;;;;;5078176;28;20834;-85
2023/05/09 07:05:23;;;;;;;0.10;0.10;;;18.40;99.90;;;;;;5076781;28;20556;-84
2023/05/09 07:07:49;;;;;;;0.10;0.10;;;18.40;99.90;;;;;;5080524;28;20184;-84
2023/05/09 07:10:14;;;;;;;0.10;0.10;;;18.60;99.90;;;;;;5081256;28;20196;-84
2023/05/09 07:12:40;;;;;;;0.10;0.10;;;19.10;99.90;;;;;;5081736;28;20216;-84
2023/05/09 07:15:06;;;;;;;0.10;0.10;;;19.40;99.90;;;;;;5077842;28;20180;-85
2023/05/09 07:17:32;;;;;;;0.10;0.10;;;19.10;99.90;;;;;;5077251;28;20172;-83
2023/05/09 07:19:57;;;;;;;0.10;0.10;;;18.80;99.90;;;;;;5080853;28;21105;-83
2023/05/09 07:22:23;;;;;;;0.10;0.10;;;18.90;99.90;;;;;;5079802;28;20183;-85
2023/05/09 07:24:49;;;;;;;0.10;0.10;;;18.60;99.90;;;;;;5080176;28;20679;-83
2023/05/09 07:27:15;;;;;;;0.10;0.10;;;18.50;99.90;;;;;;5078187;28;20185;-83
2023/05/09 07:29:40;;;;;;;0.10;0.10;;;18.40;99.90;;;;;;5077626;28;20246;-84
2023/05/09 07:32:06;;;;;;;0.10;0.10;;;18.20;99.90;;;;;;5078974;28;20207;-84
2023/05/09 07:34:32;;;;;;;0.10;0.10;;;18.10;99.90;;;;;;5078538;28;20223;-83
2023/05/09 07:36:57;;;;;;;0.10;0.10;;;18.00;99.90;;;;;;5077370;28;20612;-84
2023/05/09 07:39:23;;;;;;;0.10;0.10;;;18.40;99.90;;;;;;5078675;28;20654;-84
2023/05/09 07:41:48;;;;;;;0.10;0.10;;;18.60;99.90;;;;;;5077866;28;20209;-85
2023/05/09 07:44:14;;;;;;;0.10;0.10;;;18.40;99.90;;;;;;5076706;28;20744;-84
2023/05/09 07:46:40;;;;;;;0.10;0.10;;;18.50;99.90;;;;;;5077110;28;20188;-84
2023/05/09 07:49:07;;;;;;;0.10;0.10;;;18.60;99.90;;;;;;5079104;28;20210;-85
2023/05/09 07:51:33;;;;;;;0.10;0.10;;;18.60;99.90;;;;;;5077250;28;20264;-85
2023/05/09 07:53:58;;;;;;;0.10;0.10;;;18.70;99.90;;;;;;5077290;28;20186;-84
2023/05/09 07:56:25;;;;;;;0.10;0.10;;;19.00;99.90;;;;;;5075897;28;20195;-84
2023/05/09 07:58:51;;;;;;;0.10;0.10;;;19.30;99.90;;;;;;5077947;28;20666;-84
2023/05/09 08:01:16;;;;;;;0.10;0.10;;;19.20;99.90;;;;;;5078648;28;20204;-83
2023/05/09 08:03:42;;;;;;;0.10;0.10;;;19.50;99.90;;;;;;5079910;28;20228;-83
2023/05/09 08:06:07;;;;;;;0.10;0.10;;;19.40;99.90;;;;;;5079098;28;20213;-84
2023/05/09 08:08:33;;;;;;;0.20;0.20;;;18.80;99.90;;;;;;5079210;28;20191;-83
2023/05/09 08:10:58;;;;;;;0.10;0.10;;;18.30;99.90;;;;;;5078884;28;20223;-84
2023/05/09 08:13:24;;;;;;;0.10;0.10;;;18.40;99.90;;;;;;5078392;28;20192;-84
2023/05/09 08:15:49;;;;;;;0.10;0.10;;;18.30;99.90;;;;;;5076937;28;20260;-84
2023/05/09 08:18:15;;;;;;;0.10;0.10;;;18.60;99.90;;;;;;5076870;28;20185;-84
2023/05/09 08:20:41;;;;;;;0.10;0.10;;;18.70;99.90;;;;;;5080463;28;20207;-83
2023/05/09 08:23:06;;;;;;;0.10;0.10;;;19.40;99.90;;;;;;5076288;28;20188;-84
2023/05/09 08:25:32;;;;;;;0.10;0.10;;;19.20;99.90;;;;;;5066103;28;20257;-85
2023/05/09 08:27:58;;;;;;;0.10;0.10;;;19.00;99.90;;;;;;5067807;28;20593;-84
2023/05/09 08:30:23;;;;;;;0.10;0.10;;;18.60;99.90;;;;;;5070470;28;20209;-82
2023/05/09 08:32:49;;;;;;;0.10;0.10;;;19.00;99.90;;;;;;5074135;28;20196;-82
2023/05/09 08:35:14;;;;;;;0.10;0.10;;;18.40;99.90;;;;;;5075261;28;20192;-82
2023/05/09 08:37:40;;;;;;;0.10;0.10;;;18.60;99.90;;;;;;5074402;28;20188;-82
2023/05/09 08:40:06;;;;;;;0.10;0.10;;;18.60;99.90;;;;;;5073055;28;20211;-83
2023/05/09 08:42:34;;;;;;;0.10;0.10;;;18.90;99.90;;;;;;5087965;28;20278;-82
2023/05/09 08:45:00;;;;;;;0.10;0.10;;;18.70;99.90;;;;;;5074853;28;20207;-82
2023/05/09 08:47:27;;;;;;;0.10;0.10;;;18.80;99.90;;;;;;5075069;28;20194;-83
2023/05/09 08:49:53;;;;;;;0.10;0.10;;;18.90;99.90;;;;;;5075264;28;20184;-82
2023/05/09 08:52:19;;;;;;;0.10;0.10;;;18.70;99.90;;;;;;5065209;28;20212;-82
2023/05/09 08:54:45;;;;;;;0.10;0.10;;;18.40;99.90;;;;;;5072352;28;20275;-82
2023/05/09 08:57:12;;;;;;;0.10;0.10;;;18.30;99.90;;;;;;5075396;28;20292;-83
2023/05/09 08:59:41;;;;;;;0.10;0.10;;;18.20;99.90;;;;;;5068396;28;20824;-83
2023/05/09 09:02:08;;;;;;;0.10;0.10;;;18.10;99.90;;;;;;5070065;28;20211;-83
2023/05/09 09:04:34;;;;;;;0.10;0.10;;;18.20;99.90;;;;;;5072133;28;21070;-83
2023/05/09 09:07:02;;;;;;;0.10;0.10;;;18.40;99.90;;;;;;5067052;28;20219;-84
2023/05/09 09:09:28;;;;;;;0.10;0.10;;;18.60;99.90;;;;;;5065201;28;20228;-83
2023/05/09 09:11:54;;;;;;;0.10;0.10;;;18.50;99.90;;;;;;5070816;28;20655;-83
2023/05/09 09:14:24;;;;;;;0.10;0.10;;;18.60;99.90;;;;;;5069826;28;20263;-83
2023/05/09 09:16:51;;;;;;;0.10;0.10;;;18.50;99.90;;;;;;5067664;28;20272;-83
2023/05/09 09:19:18;;;;;;;0.10;0.10;;;18.40;99.90;;;;;;5070127;28;20227;-83
2023/05/09 09:21:46;;;;;;;0.10;0.10;;;18.50;99.90;;;;;;5070177;28;20268;-83
2023/05/09 09:24:12;;;;;;;0.10;0.10;;;18.50;99.90;;;;;;5071944;28;20188;-83
2023/05/09 09:26:48;;;;;;;0.10;0.10;;;18.60;99.90;;;;;;5072529;28;20207;-83
2023/05/09 09:29:15;;;;;;;0.10;0.10;;;18.60;99.90;;;;;;5075543;28;20187;-82
2023/05/09 09:31:45;;;;;;;0.10;0.10;;;18.60;99.90;;;;;;5075316;28;20951;-83
2023/05/09 09:34:13;;;;;;;0.10;0.10;;;18.60;99.90;;;;;;5076157;28;20181;-82
2023/05/09 09:36:39;;;;;;;0.10;0.10;;;18.70;99.90;;;;;;5073203;28;20186;-82
2023/05/09 09:39:05;;;;;;;0.10;0.10;;;18.90;99.90;;;;;;5071743;28;20307;-83
2023/05/09 09:41:39;;;;;;;0.10;0.10;;;19.20;99.90;;;;;;5069497;28;20300;-84
2023/05/09 09:44:07;;;;;;;0.10;0.10;;;19.10;99.90;;;;;;5078553;28;20183;-83
2023/05/09 09:46:51;;;;;;;0.10;0.10;;;19.00;99.90;;;;;;5074609;28;20189;-83
2023/05/09 09:49:19;;;;;;;0.10;0.10;;;19.10;99.90;;;;;;5072295;28;20279;-83
2023/05/09 09:51:52;;;;;;;0.10;0.10;;;19.30;99.90;;;;;;5075182;28;20231;-83
2023/05/09 09:54:18;;;;;;;0.10;0.10;;;19.30;99.90;;;;;;5075429;28;20187;-82
2023/05/09 09:56:49;;;;;;;0.10;0.10;;;19.40;99.90;;;;;;5075803;28;20190;-82
2023/05/09 09:59:22;;;;;;;0.10;0.10;;;19.40;99.90;;;;;;5073013;28;20180;-82
2023/05/09 10:01:58;;;;;;;0.10;0.10;;;19.40;99.90;;;;;;5074602;28;20362;-83
2023/05/09 10:04:25;;;;;;;0.10;0.10;;;19.10;99.90;;;;;;5072883;28;20200;-82
2023/05/09 10:06:59;;;;;;;0.10;0.10;;;18.80;99.90;;;;;;5076940;28;20191;-82
2023/05/09 10:09:26;;;;;;;0.10;0.10;;;18.10;99.90;;;;;;5073463;28;20188;-82
2023/05/09 10:11:54;;;;;;;0.10;0.10;;;18.00;99.90;;;;;;5066957;28;20216;-82
2023/05/09 10:14:24;;;;;;;0.10;0.10;;;18.20;99.90;;;;;;5067397;28;20196;-82
2023/05/09 10:16:53;;;;;;;0.10;0.10;;;18.50;99.90;;;;;;5069737;28;20317;-83
2023/05/09 10:19:20;;;;;;;0.10;0.10;;;18.80;99.90;;;;;;5068155;28;20185;-82
2023/05/09 10:21:51;;;;;;;0.10;0.10;;;19.10;99.90;;;;;;5059437;28;20231;-82
2023/05/09 10:24:33;;;;;;;0.20;0.20;;;19.70;99.90;;;;;;5072828;28;20176;-82
2023/05/09 10:27:05;;;;;;;0.10;0.10;;;20.10;99.90;;;;;;5070730;28;20246;-83
2023/05/09 10:29:37;;;;;;;0.10;0.10;;;20.30;99.90;;;;;;5072493;28;20184;-83
2023/05/09 10:32:22;;;;;;;0.10;0.10;;;20.30;99.90;;;;;;5055037;28;20656;-83
2023/05/09 10:34:50;;;;;;;0.10;0.10;;;20.20;99.90;;;;;;5076621;28;20230;-83
2023/05/09 10:37:16;;;;;;;0.10;0.10;;;20.40;99.90;;;;;;5072918;28;20527;-83
2023/05/09 10:39:43;;;;;;;0.10;0.10;;;20.10;99.90;;;;;;5072269;28;20186;-82
2023/05/09 10:42:09;;;;;;;0.10;0.10;;;20.20;99.90;;;;;;5073079;28;20208;-83
2023/05/09 10:44:35;;;;;;;0.10;0.10;;;20.20;99.90;;;;;;5077394;28;20304;-83
2023/05/09 10:47:01;;;;;;;0.10;0.10;;;20.50;99.90;;;;;;5074247;28;20191;-82
2023/05/09 10:49:27;;;;;;;0.10;0.10;;;20.70;99.90;;;;;;5073476;28;20180;-83
2023/05/09 10:51:53;;;;;;;0.10;0.10;;;21.20;99.90;;;;;;5074011;28;20621;-82
2023/05/09 10:54:31;;;;;;;0.10;0.10;;;21.60;99.90;;;;;;5072962;28;20238;-82
2023/05/09 10:56:57;;;;;;;0.10;0.10;;;21.60;99.90;;;;;;5070566;28;20859;-82
2023/05/09 10:59:42;;;;;;;0.10;0.10;;;21.70;99.90;;;;;;5073316;28;20181;-83
2023/05/09 11:02:18;;;;;;;0.10;0.10;;;21.70;99.90;;;;;;5072746;28;20204;-82
2023/05/09 11:04:44;;;;;;;0.10;0.10;;;21.20;99.90;;;;;;5075633;28;20563;-83
2023/05/09 11:07:26;;;;;;;0.10;0.10;;;20.90;99.90;;;;;;5073957;28;20183;-82
2023/05/09 11:10:06;;;;;;;0.10;0.10;;;21.20;99.90;;;;;;5077431;28;20213;-83
2023/05/09 11:12:31;;;;;;;0.10;0.10;;;21.20;99.90;;;;;;5070035;28;20266;-82
2023/05/09 11:15:04;;;;;;;0.10;0.10;;;21.20;99.90;;;;;;5071776;28;20176;-83
2023/05/09 11:17:31;;;;;;;0.10;0.10;;;21.20;99.90;;;;;;5073592;28;20192;-82
2023/05/09 11:20:04;;;;;;;0.10;0.10;;;21.30;99.90;;;;;;5075243;28;20176;-83
2023/05/09 11:22:51;;;;;;;0.10;0.10;;;21.60;99.90;;;;;;5076620;28;20180;-83
2023/05/09 11:25:24;;;;;;;0.10;0.10;;;21.70;99.90;;;;;;5090357;28;20180;-83
2023/05/09 11:27:51;;;;;;;0.10;0.10;;;21.80;99.90;;;;;;5074428;28;20185;-82
2023/05/09 11:30:18;;;;;;;0.10;0.10;;;21.80;99.90;;;;;;5070668;28;20209;-82
2023/05/09 11:32:45;;;;;;;0.10;0.10;;;21.80;99.90;;;;;;5071852;28;20220;-85
2023/05/09 11:35:19;;;;;;;0.10;0.10;;;21.60;99.90;;;;;;5068797;28;20635;-86
2023/05/09 11:38:03;;;;;;;0.10;0.10;;;21.30;99.90;;;;;;5068930;28;20194;-83
2023/05/09 11:40:29;;;;;;;0.10;0.10;;;20.60;99.90;;;;;;5072753;28;20219;-83
2023/05/09 11:42:57;;;;;;;0.97;0.97;;;21.00;99.90;;;;;;5071599;28;20311;-83
2023/05/09 11:45:28;;;;;;;0.10;0.10;;;20.50;99.90;;;;;;5069255;28;20189;-83
2023/05/09 11:47:54;;;;;;;0.10;0.10;;;20.40;99.90;;;;;;5070470;28;20187;-82
2023/05/09 11:50:20;;;;;;;0.10;0.10;;;21.10;99.90;;;;;;5075130;28;20946;-82
2023/05/09 11:52:47;;;;;;;0.10;0.10;;;21.80;99.90;;;;;;5073718;28;20209;-82
2023/05/09 11:55:14;;;;;;;0.10;0.10;;;21.80;99.90;;;;;;5074659;28;20173;-82
2023/05/09 11:57:41;;;;;;;0.10;0.10;;;21.70;99.90;;;;;;5071477;28;20231;-83
2023/05/09 12:00:09;;;;;;;0.10;0.10;;;21.90;99.90;;;;;;5073112;28;20191;-83
2023/05/09 12:02:37;;;;;;;0.10;0.10;;;22.40;99.90;;;;;;5068665;28;20185;-82
2023/05/09 12:05:12;;;;;;;0.10;0.10;;;22.50;99.90;;;;;;5071897;28;20673;-83
2023/05/09 12:07:38;;;;;;;0.10;0.10;;;22.70;99.90;;;;;;5069783;28;20185;-83
2023/05/09 12:10:07;;;;;;;0.10;0.10;;;23.10;99.90;;;;;;5073291;28;20180;-83
2023/05/09 12:12:44;;;;;;;0.10;0.10;;;22.90;99.90;;;;;;5072823;28;20562;-83
2023/05/09 12:15:12;;;;;;;0.10;0.10;;;22.50;99.90;;;;;;5069316;28;20268;-82
2023/05/09 12:17:38;;;;;;;0.10;0.10;;;22.70;99.90;;;;;;5072356;28;20304;-82
2023/05/09 12:20:04;;;;;;;0.10;0.10;;;22.10;99.90;;;;;;5067920;28;20227;-82
2023/05/09 12:22:31;;;;;;;0.10;0.10;;;22.50;99.90;;;;;;5067913;28;20180;-83
2023/05/09 12:25:00;;;;;;;0.10;0.10;;;22.20;99.90;;;;;;5071844;28;20181;-82
2023/05/09 12:27:27;;;;;;;0.10;0.10;;;22.70;99.90;;;;;;5070910;28;20582;-82
2023/05/09 12:29:53;;;;;;;0.10;0.10;;;22.80;99.90;;;;;;5069272;28;20188;-83
2023/05/09 12:32:19;;;;;;;0.10;0.10;;;22.90;99.90;;;;;;5073836;28;20292;-83
2023/05/09 12:34:47;;;;;;;0.10;0.10;;;22.90;99.90;;;;;;5074625;28;20280;-82
2023/05/09 12:37:19;;;;;;;0.10;0.10;;;22.80;99.90;;;;;;5074096;28;20260;-83
2023/05/09 12:40:11;;;;;;;0.10;0.10;;;22.80;99.90;;;;;;5073012;28;20184;-82
2023/05/09 12:42:36;;;;;;;0.10;0.10;;;22.80;99.90;;;;;;5070772;28;20832;-83
2023/05/09 12:45:03;;;;;;;0.10;0.10;;;22.70;99.90;;;;;;5071177;28;20268;-83
2023/05/09 12:47:30;;;;;;;0.10;0.10;;;22.50;99.90;;;;;;5074618;28;20532;-82
2023/05/09 12:49:57;;;;;;;0.10;0.10;;;22.50;99.90;;;;;;5089136;28;21174;-82